createdAt,value
2023-02-14T00:01:29.376Z,12.53
2023-02-14T00:04:00.620Z,7.83
2023-02-14T00:06:28.972Z,10.13
2023-02-14T00:08:56.891Z,12.57
2023-02-14T00:11:24.793Z,11.53
2023-02-14T00:14:10.086Z,14.67
2023-02-14T00:16:39.441Z,11.40
2023-02-14T00:19:07.425Z,9.37
2023-02-14T00:21:37.289Z,9.17
2023-02-14T00:24:05.872Z,10.57
2023-02-14T00:26:34.405Z,11.40
2023-02-14T00:29:02.540Z,9.67
2023-02-14T00:31:30.510Z,12.33
2023-02-14T00:33:59.846Z,8.57
2023-02-14T00:36:27.975Z,9.27
2023-02-14T00:38:55.934Z,11.37
2023-02-14T00:41:24.418Z,9.17
2023-02-14T00:43:54.356Z,9.00
2023-02-14T00:46:24.186Z,11.00
2023-02-14T00:48:53.028Z,9.37
2023-02-14T00:51:23.194Z,10.30
2023-02-14T00:53:51.994Z,11.13
2023-02-14T00:56:20.660Z,14.13
2023-02-14T00:58:48.774Z,8.07
2023-02-14T01:01:17.880Z,9.93
2023-02-14T01:03:45.974Z,7.73
2023-02-14T01:06:14.235Z,9.00
2023-02-14T01:08:43.642Z,11.07
2023-02-14T01:11:14.693Z,10.37
2023-02-14T01:13:43.365Z,12.70
2023-02-14T01:16:13.468Z,11.87
2023-02-14T01:18:41.839Z,10.40
2023-02-14T01:21:15.113Z,10.57
2023-02-14T01:23:45.144Z,9.07
2023-02-14T01:26:13.999Z,8.90
2023-02-14T01:28:42.824Z,10.73
2023-02-14T01:31:12.944Z,9.03
2023-02-14T01:33:42.576Z,10.73
2023-02-14T01:36:17.186Z,8.07
2023-02-14T01:38:46.757Z,9.17
2023-02-14T01:41:15.381Z,7.43
2023-02-14T01:43:55.826Z,11.77
2023-02-14T01:46:24.590Z,10.00
2023-02-14T01:48:53.516Z,9.57
2023-02-14T01:51:21.879Z,9.33
2023-02-14T01:53:52.581Z,9.13
2023-02-14T01:56:25.205Z,8.53
2023-02-14T01:58:56.820Z,11.53
2023-02-14T02:01:25.226Z,9.17
2023-02-14T02:03:56.946Z,13.33
2023-02-14T02:06:30.489Z,11.90
2023-02-14T02:09:08.112Z,9.43
2023-02-14T02:11:37.881Z,9.97
2023-02-14T02:14:06.432Z,10.10
2023-02-14T02:17:05.355Z,11.63
2023-02-14T02:20:03.653Z,10.73
2023-02-14T02:22:57.166Z,10.87
2023-02-14T02:25:43.608Z,12.77
2023-02-14T02:28:35.409Z,9.47
2023-02-14T02:31:27.157Z,12.77
2023-02-14T02:34:35.054Z,12.73
2023-02-14T02:37:20.656Z,10.07
2023-02-14T02:39:59.841Z,10.97
2023-02-14T02:42:37.088Z,10.97
2023-02-14T02:45:13.084Z,8.77
2023-02-14T02:47:46.423Z,9.40
2023-02-14T02:50:44.831Z,12.30
2023-02-14T02:53:21.748Z,13.33
2023-02-14T02:56:14.158Z,10.27
2023-02-14T02:58:46.403Z,10.73
2023-02-14T03:01:18.177Z,9.57
2023-02-14T03:04:07.055Z,9.77
2023-02-14T03:06:35.477Z,12.63
2023-02-14T03:09:13.522Z,9.90
2023-02-14T03:11:50.112Z,8.77
2023-02-14T03:14:22.273Z,9.37
2023-02-14T03:17:04.897Z,9.40
2023-02-14T03:20:02.112Z,9.47
2023-02-14T03:22:43.090Z,12.07
2023-02-14T03:25:25.529Z,11.70
2023-02-14T03:28:00.097Z,12.57
2023-02-14T03:30:42.180Z,9.83
2023-02-14T03:33:16.924Z,14.10
2023-02-14T03:35:53.972Z,12.30
2023-02-14T03:38:26.558Z,7.73
2023-02-14T03:40:58.730Z,12.10
2023-02-14T03:43:31.855Z,8.70
2023-02-14T03:46:04.579Z,9.10
2023-02-14T03:48:36.185Z,11.83
2023-02-14T03:51:05.840Z,8.97
2023-02-14T03:53:38.043Z,11.67
2023-02-14T03:56:12.018Z,9.70
2023-02-14T03:58:42.344Z,8.07
2023-02-14T04:01:14.072Z,12.97
2023-02-14T04:03:43.755Z,10.87
2023-02-14T04:06:11.874Z,11.53
2023-02-14T04:08:39.890Z,9.87
2023-02-14T04:11:09.291Z,11.73
2023-02-14T04:13:38.721Z,16.63
2023-02-14T04:16:07.733Z,10.17
2023-02-14T04:18:53.006Z,11.23
2023-02-14T04:21:21.033Z,16.57
2023-02-14T04:23:48.982Z,12.13
2023-02-14T04:26:18.331Z,11.17
2023-02-14T04:28:46.367Z,13.23
2023-02-14T04:31:14.467Z,11.70
2023-02-14T04:33:42.510Z,13.63
2023-02-14T04:36:10.600Z,13.40
2023-02-14T04:38:38.610Z,10.60
2023-02-14T04:41:06.591Z,13.37
2023-02-14T04:43:35.934Z,12.63
2023-02-14T04:46:03.907Z,11.97
2023-02-14T04:48:31.852Z,17.43
2023-02-14T04:51:00.048Z,9.17
2023-02-14T04:53:28.175Z,11.67
2023-02-14T04:55:56.127Z,10.83
2023-02-14T04:58:24.097Z,9.93
2023-02-14T05:00:53.452Z,12.20
2023-02-14T05:03:21.486Z,12.60
2023-02-14T05:05:49.467Z,14.53
2023-02-14T05:08:17.417Z,13.13
2023-02-14T05:10:45.608Z,14.53
2023-02-14T05:13:14.400Z,11.45
2023-02-14T05:15:42.353Z,13.33
2023-02-14T05:18:11.704Z,14.70
2023-02-14T05:20:39.664Z,14.03
2023-02-14T05:23:13.567Z,15.30
2023-02-14T05:25:41.681Z,16.07
2023-02-14T05:28:09.887Z,13.47
2023-02-14T05:30:39.261Z,13.07
2023-02-14T05:33:07.487Z,12.27
2023-02-14T05:35:36.799Z,10.33
2023-02-14T05:38:04.901Z,14.73
2023-02-14T05:40:33.004Z,11.33
2023-02-14T05:43:01.189Z,13.90
2023-02-14T05:45:29.167Z,12.63
2023-02-14T05:47:57.163Z,17.47
2023-02-14T05:50:25.205Z,10.17
2023-02-14T05:52:54.510Z,13.63
2023-02-14T05:55:22.580Z,13.03
2023-02-14T05:57:50.534Z,11.60
2023-02-14T06:00:19.787Z,16.03
2023-02-14T06:02:47.742Z,14.40
2023-02-14T06:05:18.239Z,11.80
2023-02-14T06:07:50.468Z,14.60
2023-02-14T06:10:21.624Z,11.90
2023-02-14T06:12:51.447Z,12.27
2023-02-14T06:15:19.632Z,10.83
2023-02-14T06:17:52.632Z,11.37
2023-02-14T06:20:21.140Z,9.33
2023-02-14T06:22:49.114Z,10.83
2023-02-14T06:25:17.155Z,9.97
2023-02-14T06:27:49.049Z,9.87
2023-02-14T06:30:18.334Z,11.60
2023-02-14T06:32:46.311Z,9.97
2023-02-14T06:35:14.750Z,10.43
2023-02-14T06:37:42.724Z,16.07
2023-02-14T06:40:11.580Z,11.77
2023-02-14T06:42:40.093Z,12.97
2023-02-14T06:45:10.624Z,10.90
2023-02-14T06:47:38.868Z,14.67
2023-02-14T06:50:08.277Z,9.30
2023-02-14T06:52:36.219Z,14.00
2023-02-14T06:55:06.572Z,14.50
2023-02-14T06:57:34.493Z,16.73
2023-02-14T07:00:02.450Z,11.83
2023-02-14T07:02:31.768Z,12.37
2023-02-14T07:04:59.735Z,12.67
2023-02-14T07:07:27.685Z,11.30
2023-02-14T07:09:55.611Z,11.13
2023-02-14T07:12:23.531Z,13.47
2023-02-14T07:14:51.493Z,16.50
2023-02-14T07:17:19.435Z,12.27
2023-02-14T07:19:48.725Z,10.20
2023-02-14T07:22:16.655Z,13.83
2023-02-14T07:24:44.579Z,13.23
2023-02-14T07:27:12.525Z,12.50
2023-02-14T07:29:40.529Z,13.10
2023-02-14T07:32:08.600Z,13.47
2023-02-14T07:34:36.636Z,9.50
2023-02-14T07:37:05.945Z,11.87
2023-02-14T07:39:34.010Z,11.10
2023-02-14T07:42:01.923Z,8.43
2023-02-14T07:44:29.925Z,11.97
2023-02-14T07:46:57.854Z,9.23
2023-02-14T07:49:25.826Z,10.27
2023-02-14T07:51:53.792Z,14.03
2023-02-14T07:54:23.195Z,17.27
2023-02-14T07:56:51.329Z,12.07
2023-02-14T07:59:19.271Z,9.90
2023-02-14T08:01:47.666Z,12.73
2023-02-14T08:04:15.642Z,14.33
2023-02-14T08:06:44.073Z,13.33
2023-02-14T08:09:24.533Z,9.57
2023-02-14T08:12:12.500Z,9.20
2023-02-14T08:14:40.710Z,11.20
2023-02-14T08:17:10.086Z,10.50
2023-02-14T08:19:38.149Z,10.40
2023-02-14T08:22:06.433Z,9.23
2023-02-14T08:24:34.402Z,11.30
2023-02-14T08:27:03.931Z,12.63
2023-02-14T08:29:31.844Z,9.10
2023-02-14T08:32:01.014Z,10.00
2023-02-14T08:34:29.118Z,15.73
2023-02-14T08:36:57.122Z,12.20
2023-02-14T08:39:25.155Z,15.00
2023-02-14T08:41:53.121Z,14.57
2023-02-14T08:44:22.575Z,11.40
2023-02-14T08:46:50.816Z,10.33
2023-02-14T08:49:18.850Z,10.10
2023-02-14T08:51:46.805Z,13.60
2023-02-14T08:54:14.721Z,9.80
2023-02-14T08:56:42.921Z,10.30
2023-02-14T08:59:10.885Z,10.40
2023-02-14T09:01:40.189Z,13.70
2023-02-14T09:04:08.185Z,10.87
2023-02-14T09:06:38.609Z,11.67
2023-02-14T09:09:06.676Z,9.97
2023-02-14T09:11:35.630Z,8.03
2023-02-14T09:14:03.572Z,13.63
2023-02-14T09:16:31.702Z,10.00
2023-02-14T09:19:01.024Z,12.57
2023-02-14T09:21:30.227Z,13.77
2023-02-14T09:23:58.470Z,14.00
2023-02-14T09:26:26.427Z,11.97
2023-02-14T09:28:54.409Z,8.10
2023-02-14T09:31:24.077Z,9.37
2023-02-14T09:33:52.833Z,11.30
2023-02-14T09:36:39.758Z,8.77
2023-02-14T09:39:07.723Z,9.00
2023-02-14T09:41:57.456Z,7.67
2023-02-14T09:44:31.280Z,10.70
2023-02-14T09:47:07.216Z,9.70
2023-02-14T09:49:39.741Z,9.50
2023-02-14T09:52:16.324Z,11.20
2023-02-14T09:54:48.068Z,8.17
2023-02-14T09:57:24.068Z,10.67
2023-02-14T09:59:58.417Z,10.70
2023-02-14T10:02:45.908Z,10.67
2023-02-14T10:05:16.772Z,10.43
2023-02-14T10:08:07.578Z,12.33
2023-02-14T10:10:41.430Z,11.67
2023-02-14T10:13:17.075Z,8.87
2023-02-14T10:15:49.594Z,12.10
2023-02-14T10:18:22.402Z,8.67
2023-02-14T10:20:54.261Z,7.47
2023-02-14T10:23:30.336Z,10.07
2023-02-14T10:26:02.064Z,11.93
2023-02-14T10:28:34.264Z,8.67
2023-02-14T10:31:21.153Z,11.13
2023-02-14T10:33:57.084Z,7.67
2023-02-14T10:36:48.790Z,8.93
2023-02-14T10:39:40.147Z,11.07
2023-02-14T10:42:20.219Z,9.93
2023-02-14T10:44:56.156Z,7.07
2023-02-14T10:47:34.423Z,14.10
2023-02-14T10:50:12.233Z,13.20
2023-02-14T10:52:45.196Z,11.73
2023-02-14T10:55:31.978Z,11.87
2023-02-14T10:58:04.093Z,9.10
2023-02-14T11:00:35.399Z,10.47
2023-02-14T11:03:07.832Z,12.03
2023-02-14T11:05:39.675Z,14.83
2023-02-14T11:08:16.051Z,21.70
2023-02-14T11:10:45.427Z,11.47
2023-02-14T11:13:35.273Z,8.37
2023-02-14T11:16:05.884Z,11.97
2023-02-14T11:18:36.189Z,8.10
2023-02-14T11:21:08.159Z,9.80
2023-02-14T11:23:39.164Z,10.73
2023-02-14T11:26:12.907Z,10.93
2023-02-14T11:28:53.729Z,15.27
2023-02-14T11:31:34.210Z,14.50
2023-02-14T11:34:04.985Z,13.37
2023-02-14T11:36:33.768Z,17.40
2023-02-14T11:39:17.576Z,9.30
2023-02-14T11:41:51.452Z,10.50
2023-02-14T11:44:24.691Z,10.97
2023-02-14T11:46:54.441Z,21.03
2023-02-14T11:49:31.511Z,19.47
2023-02-14T11:52:02.393Z,12.47
2023-02-14T11:54:36.969Z,9.47
2023-02-14T11:57:13.146Z,14.20
2023-02-14T11:59:44.979Z,8.90
2023-02-14T12:02:24.363Z,6.73
2023-02-14T12:04:56.563Z,11.43
2023-02-14T12:07:28.598Z,10.03
2023-02-14T12:10:35.230Z,8.00
2023-02-14T12:13:22.819Z,7.33
2023-02-14T12:15:54.097Z,8.87
2023-02-14T12:18:43.863Z,5.47
2023-02-14T12:21:24.004Z,8.87
2023-02-14T12:24:00.437Z,7.03
2023-02-14T12:26:32.158Z,11.70
2023-02-14T12:29:10.750Z,6.90
2023-02-14T12:31:38.798Z,9.30
2023-02-14T12:34:07.216Z,14.43
2023-02-14T12:36:47.917Z,19.33
2023-02-14T12:39:24.235Z,13.27
2023-02-14T12:42:02.784Z,10.13
2023-02-14T12:44:40.453Z,6.47
2023-02-14T12:47:20.342Z,7.73
2023-02-14T12:50:04.953Z,17.60
2023-02-14T12:52:48.515Z,17.60
2023-02-14T12:55:30.644Z,5.40
2023-02-14T12:58:04.748Z,10.67
2023-02-14T13:00:44.891Z,5.57
2023-02-14T13:03:28.475Z,9.87
2023-02-14T13:06:03.452Z,16.67
2023-02-14T13:08:43.577Z,4.97
2023-02-14T13:11:19.128Z,6.43
2023-02-14T13:14:03.860Z,5.87
2023-02-14T13:16:40.725Z,6.23
2023-02-14T13:19:20.297Z,11.20
2023-02-14T13:21:50.554Z,9.47
2023-02-14T13:24:22.682Z,6.07
2023-02-14T13:26:55.366Z,5.30
2023-02-14T13:29:25.921Z,9.93
2023-02-14T13:32:00.003Z,9.13
2023-02-14T13:34:31.807Z,5.77
2023-02-14T13:37:01.717Z,12.27
2023-02-14T13:39:37.786Z,8.20
2023-02-14T13:42:06.895Z,6.80
2023-02-14T13:44:44.155Z,6.63
2023-02-14T13:47:20.996Z,8.27
2023-02-14T13:49:52.524Z,6.17
2023-02-14T13:52:39.812Z,7.23
2023-02-14T13:55:09.996Z,4.03
2023-02-14T13:57:41.301Z,6.33
2023-02-14T14:00:38.445Z,8.93
2023-02-14T14:03:09.219Z,6.53
2023-02-14T14:06:02.094Z,8.33
2023-02-14T14:08:46.334Z,10.93
2023-02-14T14:12:01.822Z,9.47
2023-02-14T14:14:37.521Z,4.33
2023-02-14T14:17:22.158Z,6.83
2023-02-14T14:19:52.319Z,7.47
2023-02-14T14:22:21.312Z,5.83
2023-02-14T14:24:54.670Z,9.77
2023-02-14T14:27:25.778Z,6.27
2023-02-14T14:29:55.911Z,8.43
2023-02-14T14:32:29.506Z,8.23
2023-02-14T14:35:00.682Z,8.87
2023-02-14T14:37:30.976Z,7.87
2023-02-14T14:40:00.386Z,5.10
2023-02-14T14:42:31.138Z,6.23
2023-02-14T14:45:02.798Z,9.30
2023-02-14T14:47:38.655Z,8.40
2023-02-14T14:50:11.088Z,8.40
2023-02-14T14:52:43.831Z,8.40
2023-02-14T14:55:21.043Z,6.20
2023-02-14T14:57:54.515Z,9.20
2023-02-14T15:00:28.550Z,6.37
2023-02-14T15:02:58.481Z,5.00
2023-02-14T15:05:29.809Z,6.83
2023-02-14T15:07:58.785Z,7.07
2023-02-14T15:10:29.916Z,8.17
2023-02-14T15:13:17.676Z,10.13
2023-02-14T15:15:50.899Z,5.37
2023-02-14T15:18:19.560Z,6.87
2023-02-14T15:20:52.739Z,8.33
2023-02-14T15:23:23.524Z,13.33
2023-02-14T15:25:52.568Z,12.33
2023-02-14T15:28:31.246Z,11.97
2023-02-14T15:31:01.703Z,11.90
2023-02-14T15:33:31.039Z,7.87
2023-02-14T15:36:03.841Z,13.10
2023-02-14T15:38:33.850Z,14.00
2023-02-14T15:41:02.730Z,12.13
2023-02-14T15:43:32.859Z,12.07
2023-02-14T15:46:15.363Z,16.63
2023-02-14T15:48:43.826Z,15.17
2023-02-14T15:51:20.275Z,10.90
2023-02-14T15:53:53.023Z,11.20
2023-02-14T15:56:24.912Z,11.53
2023-02-14T15:59:02.462Z,9.80
2023-02-14T16:01:31.566Z,11.77
2023-02-14T16:04:02.673Z,16.10
2023-02-14T16:06:35.756Z,27.50
2023-02-14T16:09:04.975Z,18.73
2023-02-14T16:11:37.091Z,13.13
2023-02-14T16:14:31.579Z,17.67
2023-02-14T16:17:01.514Z,18.70
2023-02-14T16:19:38.278Z,13.77
2023-02-14T16:22:09.729Z,14.60
2023-02-14T16:24:38.326Z,25.30
2023-02-14T16:27:07.907Z,18.20
2023-02-14T16:29:37.229Z,23.37
2023-02-14T16:32:16.895Z,17.90
2023-02-14T16:34:47.256Z,17.87
2023-02-14T16:37:23.227Z,16.80
2023-02-14T16:39:53.850Z,24.23
2023-02-14T16:42:21.940Z,19.93
2023-02-14T16:44:50.325Z,19.40
2023-02-14T16:47:20.739Z,19.80
2023-02-14T16:49:50.630Z,18.30
2023-02-14T16:52:24.691Z,15.53
2023-02-14T16:54:53.455Z,22.50
2023-02-14T16:57:25.493Z,20.10
2023-02-14T16:59:56.416Z,23.47
2023-02-14T17:02:28.281Z,19.77
2023-02-14T17:04:56.406Z,26.10
2023-02-14T17:07:26.094Z,32.83
2023-02-14T17:09:59.669Z,29.57
2023-02-14T17:12:32.294Z,30.80
2023-02-14T17:15:05.961Z,27.47
2023-02-14T17:17:35.068Z,28.03
2023-02-14T17:20:04.884Z,20.20
2023-02-14T17:22:34.510Z,47.40
2023-02-14T17:25:02.474Z,43.77
2023-02-14T17:27:30.390Z,38.07
2023-02-14T17:29:58.309Z,33.90
2023-02-14T17:32:26.302Z,30.05
2023-02-14T17:34:54.870Z,27.70
2023-02-14T17:37:22.889Z,35.33
2023-02-14T17:39:53.870Z,30.57
2023-02-14T17:42:22.016Z,25.37
2023-02-14T17:44:49.921Z,24.27
2023-02-14T17:47:18.255Z,32.40
2023-02-14T17:49:47.629Z,30.73
2023-02-14T17:52:16.512Z,36.03
2023-02-14T17:54:44.912Z,22.43
2023-02-14T17:57:14.445Z,40.13
2023-02-14T17:59:42.904Z,78.30
2023-02-14T18:02:10.855Z,38.90
2023-02-14T18:04:39.058Z,40.87
2023-02-14T18:07:07.150Z,35.97
2023-02-14T18:09:36.031Z,46.33
2023-02-14T18:12:04.173Z,108.03
2023-02-14T18:14:33.837Z,81.33
2023-02-14T18:17:01.784Z,56.57
2023-02-14T18:19:30.252Z,56.73
2023-02-14T18:21:58.309Z,47.33
2023-02-14T18:24:26.275Z,46.13
2023-02-14T18:26:55.404Z,41.83
2023-02-14T18:29:23.591Z,53.37
2023-02-14T18:31:53.000Z,48.33
2023-02-14T18:34:21.031Z,44.83
2023-02-14T18:36:48.989Z,64.10
2023-02-14T18:39:17.219Z,47.57
2023-02-14T18:41:45.138Z,67.73
2023-02-14T18:44:13.646Z,85.40
2023-02-14T18:46:41.613Z,70.67
2023-02-14T18:49:13.229Z,62.90
2023-02-14T18:51:41.341Z,57.03
2023-02-14T18:54:09.391Z,62.37
2023-02-14T18:56:38.923Z,53.60
2023-02-14T18:59:09.641Z,50.17
2023-02-14T19:01:39.746Z,47.27
2023-02-14T19:04:12.126Z,57.70
2023-02-14T19:06:41.894Z,54.00
2023-02-14T19:09:11.816Z,53.47
2023-02-14T19:11:40.299Z,57.97
2023-02-14T19:14:10.511Z,64.77
2023-02-14T19:16:39.940Z,79.40
2023-02-14T19:19:08.456Z,66.20
2023-02-14T19:21:38.235Z,75.80
2023-02-14T19:24:07.966Z,90.50
2023-02-14T19:26:40.089Z,97.63
2023-02-14T19:29:10.623Z,98.37
2023-02-14T19:31:40.488Z,74.30
2023-02-14T19:34:15.697Z,73.37
2023-02-14T19:36:45.372Z,129.13
2023-02-14T19:39:13.956Z,84.33
2023-02-14T19:41:42.159Z,96.33
2023-02-14T19:44:13.748Z,85.13
2023-02-14T19:46:42.863Z,75.97
2023-02-14T19:49:14.433Z,79.90
2023-02-14T19:51:44.234Z,81.13
2023-02-14T19:54:13.524Z,84.90
2023-02-14T19:56:44.192Z,68.60
2023-02-14T19:59:15.314Z,72.57
2023-02-14T20:01:46.321Z,84.30
2023-02-14T20:04:15.884Z,86.97
2023-02-14T20:06:46.000Z,79.77
2023-02-14T20:09:14.476Z,115.23
2023-02-14T20:11:49.585Z,108.30
2023-02-14T20:14:19.475Z,137.27
2023-02-14T20:16:48.003Z,115.60
2023-02-14T20:19:18.295Z,108.47
2023-02-14T20:21:49.015Z,114.57
2023-02-14T20:24:18.699Z,107.53
2023-02-14T20:26:47.470Z,119.33
2023-02-14T20:29:16.840Z,110.13
2023-02-14T20:31:46.364Z,70.87
2023-02-14T20:34:15.252Z,81.63
2023-02-14T20:36:44.051Z,94.73
2023-02-14T20:39:14.056Z,64.57
2023-02-14T20:41:43.669Z,94.67
2023-02-14T20:44:15.525Z,85.73
2023-02-14T20:46:43.826Z,81.10
2023-02-14T20:49:12.452Z,95.47
2023-02-14T20:51:40.736Z,86.23
2023-02-14T20:54:08.768Z,71.50
2023-02-14T20:56:40.090Z,75.43
2023-02-14T20:59:08.603Z,78.50
2023-02-14T21:01:36.695Z,71.10
2023-02-14T21:04:05.029Z,59.33
2023-02-14T21:06:35.481Z,52.20
2023-02-14T21:09:04.507Z,48.43
2023-02-14T21:11:32.494Z,59.30
2023-02-14T21:14:02.627Z,53.97
2023-02-14T21:16:31.273Z,55.20
2023-02-14T21:19:00.810Z,54.93
2023-02-14T21:21:32.644Z,45.97
2023-02-14T21:24:01.605Z,49.00
2023-02-14T21:26:30.032Z,49.13
2023-02-14T21:28:58.126Z,46.37
2023-02-14T21:31:27.641Z,36.30
2023-02-14T21:33:58.322Z,40.13
2023-02-14T21:36:28.550Z,45.83
2023-02-14T21:38:58.366Z,41.10
2023-02-14T21:41:27.702Z,40.60
2023-02-14T21:43:57.380Z,29.83
2023-02-14T21:46:27.667Z,45.43
2023-02-14T21:49:14.333Z,33.60
2023-02-14T21:51:42.898Z,27.97
2023-02-14T21:54:11.347Z,41.53
2023-02-14T21:56:41.261Z,44.30
2023-02-14T21:59:10.089Z,44.63
2023-02-14T22:01:41.391Z,120.03
2023-02-14T22:04:11.510Z,90.93
2023-02-14T22:06:41.615Z,92.00
2023-02-14T22:09:11.313Z,92.07
2023-02-14T22:11:39.477Z,73.53
2023-02-14T22:14:07.533Z,62.10
2023-02-14T22:16:36.828Z,69.90
2023-02-14T22:19:06.772Z,72.63
2023-02-14T22:21:35.309Z,70.37
2023-02-14T22:24:03.466Z,72.37
2023-02-14T22:26:33.787Z,68.73
2023-02-14T22:29:03.398Z,73.10
2023-02-14T22:31:34.732Z,76.77
2023-02-14T22:34:02.856Z,76.00
2023-02-14T22:36:32.271Z,120.73
2023-02-14T22:39:00.241Z,136.80
2023-02-14T22:41:28.488Z,111.37
2023-02-14T22:43:57.384Z,132.40
2023-02-14T22:46:28.381Z,163.13
2023-02-14T22:48:57.590Z,138.50
2023-02-14T22:51:31.070Z,149.77
2023-02-14T22:54:02.199Z,160.93
2023-02-14T22:56:31.979Z,198.57
2023-02-14T22:59:01.488Z,239.50
2023-02-14T23:01:29.694Z,359.43
2023-02-14T23:03:59.320Z,224.77
2023-02-14T23:06:28.770Z,280.77
2023-02-14T23:08:57.336Z,304.60
2023-02-14T23:11:28.202Z,264.70
2023-02-14T23:14:14.343Z,235.43
2023-02-14T23:17:00.254Z,176.30
2023-02-14T23:19:47.710Z,131.43
2023-02-14T23:22:19.720Z,200.53
2023-02-14T23:24:48.312Z,200.40
2023-02-14T23:27:19.349Z,144.77
2023-02-14T23:29:47.428Z,160.87
2023-02-14T23:32:16.310Z,158.80
2023-02-14T23:34:45.671Z,170.87
2023-02-14T23:37:14.811Z,127.47
2023-02-14T23:39:42.878Z,134.50
2023-02-14T23:42:13.712Z,128.60
2023-02-14T23:44:44.156Z,116.87
2023-02-14T23:47:13.653Z,132.97
2023-02-14T23:49:43.136Z,120.87
2023-02-14T23:52:13.312Z,143.93
2023-02-14T23:54:41.334Z,121.67
2023-02-14T23:57:09.944Z,135.30
2023-02-14T23:59:37.918Z,131.93
